Toronto Islands, Canada
Current Conditions -  °F | °C
As of 5:00 PM on Wednesday 22 Oct 2014 (Local Time) from CYTZ Reporting Station
Scattered Clouds Scattered Clouds  
Wind Chill: 44°   Ceiling: Unl
Heat Index: 46°   Visibility: 9mi
Dew Point: 43°   Wind: 6mph
Humidity: 87%   Direction: 220°SW
Pressure: 30.23"   Gusts: NA
Location:  43.62°N, 79.38°W
Report Text: CYTZ 222100Z AUTO 22005KT 9SM SCT060 08/06 A3023 RMK SLP240
Loading
Personal Weather Stations






























Interactive Weather Map
Tropical Storm Tracking
New forecast layout! Learn more

10-Day Weather Forecast

Advertisements
Track Severe Weather on mobile